Time;durP1;ratioP1;P1;durP2;ratioP2;P2;SDS_P1;SDS_P2;PMS_P1;PMS_P2;Temp;Humidity;BMP_temperature;BMP_pressure;BME280_temperature;BME280_humidity;BME280_pressure;Samples;Min_cycle;Max_cycle;Signal;HPM_P1;HPM_P2
2023/11/20 08:00:38;;;;;;;11.55;1.95;;;;;;;;;;2091845;27;20536;-68
2023/11/20 08:10:46;;;;;;;14.20;2.33;;;;;;;;;;2084456;28;20573;-74
2023/11/20 08:53:14;;;;;;;15.07;1.75;;;;;;;;;;2078857;28;21142;-69
2023/11/20 09:07:50;;;;;;;16.67;1.95;;;;;;;9.02;81.92;96380.47;2084219;28;20549;-73
2023/11/20 09:11:42;;;;;;;17.38;2.25;;;;;;;9.27;81.92;96393.28;2102647;27;20547;-73
2023/11/20 09:12:43;;;;;;;12.40;1.70;;;;;;;9.41;81.00;96397.06;2092547;28;20219;-74
2023/11/20 09:13:45;;;;;;;8.38;1.50;;;;;;;9.44;80.97;96391.72;2085763;28;20217;-73
2023/11/20 09:14:46;;;;;;;7.45;1.60;;;;;;;9.56;80.40;96401.59;2083332;28;20208;-74
2023/11/20 09:15:48;;;;;;;10.98;1.50;;;;;;;9.58;79.82;96399.75;2084837;28;20674;-74
2023/11/20 09:16:49;;;;;;;9.63;1.90;;;;;;;9.62;80.08;96403.94;2085320;28;20204;-71
2023/11/20 09:17:51;;;;;;;14.32;2.58;;;;;;;9.62;80.08;96403.94;2089453;28;20636;-71
2023/11/20 09:18:53;;;;;;;15.23;2.08;;;;;;;9.62;80.18;96384.81;2095796;28;20223;-71
2023/11/20 09:19:54;;;;;;;7.13;1.80;;;;;;;9.72;80.69;96398.31;2095610;28;20195;-71
2023/11/20 09:21:01;;;;;;;16.00;2.25;;;;;;;9.56;80.40;96393.78;2096390;28;20200;-71
2023/11/20 09:22:04;;;;;;;5.95;1.48;;;;;;;9.62;80.62;96403.94;2085311;28;20196;-71
2023/11/20 09:23:06;;;;;;;9.52;1.70;;;;;;;9.69;81.77;96388.84;2084632;28;20263;-71
2023/11/20 09:24:07;;;;;;;14.35;1.98;;;;;;;9.70;82.05;96397.50;2094298;28;20254;-71
2023/11/20 09:25:09;;;;;;;20.77;2.35;;;;;;;9.75;82.79;96405.97;2096626;28;20760;-71
2023/11/20 09:32:24;;;;;;;6.20;1.52;;;;;;;9.29;84.56;96458.47;2114423;27;20558;-71
2023/11/20 09:33:25;;;;;;;5.75;1.25;;;;;;;9.18;85.13;96453.63;2098665;28;20709;-70
2023/11/20 09:34:27;;;;;;;14.82;2.03;;;;;;;9.11;86.82;96451.69;2090117;28;20676;-70
2023/11/20 09:35:28;;;;;;;8.68;1.90;;;;;;;9.15;85.54;96458.19;2087382;28;20208;-71
2023/11/20 09:36:31;;;;;;;10.93;1.50;;;;;;;9.12;86.55;96462.94;2081703;28;20207;-70
2023/11/20 09:37:32;;;;;;;19.75;2.53;;;;;;;9.18;87.30;96449.22;2081040;28;20664;-77
2023/11/20 09:38:35;;;;;;;10.32;1.70;;;;;;;9.16;88.13;96440.75;2096218;28;20305;-76
2023/11/20 09:39:41;;;;;;;9.70;2.70;;;;;;;9.38;88.26;96459.25;2089789;28;20223;-77
2023/11/20 09:40:45;;;;;;;11.85;1.95;;;;;;;9.40;89.00;96457.31;2089953;28;20227;-78
2023/11/20 09:41:46;;;;;;;9.57;1.70;;;;;;;9.99;86.52;96441.28;2098821;28;20188;-77
2023/11/20 09:42:49;;;;;;;14.52;1.92;;;;;;;10.55;84.92;96428.25;2097656;28;20645;-78
2023/11/20 09:43:52;;;;;;;13.93;1.77;;;;;;;10.22;85.56;96410.03;2097212;28;20283;-78
2023/11/20 09:44:55;;;;;;;11.18;1.75;;;;;;;10.13;85.01;96426.69;2097440;28;20241;-70
2023/11/20 09:45:59;;;;;;;9.32;1.90;;;;;;;9.83;85.30;96416.06;2098839;28;20756;-78
2023/11/20 09:47:01;;;;;;;12.02;2.15;;;;;;;9.72;85.73;96416.44;2098748;28;20203;-78
2023/11/20 09:48:07;;;;;;;8.23;1.65;;;;;;;9.83;86.65;96418.69;2090700;28;20208;-78
2023/11/20 09:49:18;;;;;;;11.90;2.05;;;;;;;10.43;84.07;96413.91;2095955;28;20195;-78
2023/11/20 09:50:20;;;;;;;11.75;1.73;;;;;;;10.30;83.68;96407.38;2099417;28;20253;-79
2023/11/20 09:51:23;;;;;;;11.48;1.80;;;;;;;10.19;84.13;96422.63;2096258;28;20227;-78
2023/11/20 09:52:25;;;;;;;9.98;2.10;;;;;;;10.12;85.64;96420.69;2096790;28;20211;-78
2023/11/20 09:53:33;;;;;;;10.10;2.17;;;;;;;10.22;83.55;96420.50;2096999;28;20215;-78
2023/11/20 09:54:37;;;;;;;15.60;2.63;;;;;;;11.23;80.10;96414.78;2097841;28;20594;-71
2023/11/20 09:55:39;;;;;;;11.02;2.55;;;;;;;12.25;77.65;96401.88;2097468;28;20251;-70
2023/11/20 09:56:40;;;;;;;9.32;2.28;;;;;;;12.74;76.07;96397.47;2095532;28;20810;-71
2023/11/20 09:57:42;;;;;;;11.23;1.98;;;;;;;12.74;76.11;96402.72;2095354;28;20192;-70
2023/11/20 09:58:45;;;;;;;8.07;1.88;;;;;;;13.31;73.18;96391.22;2092769;28;20223;-79
2023/11/20 09:59:47;;;;;;;15.73;1.88;;;;;;;13.51;71.77;96396.94;2092299;28;20828;-79
2023/11/20 10:00:55;;;;;;;9.98;1.65;;;;;;;12.31;74.55;96397.75;2087891;28;20820;-78
2023/11/20 10:01:58;;;;;;;10.85;2.38;;;;;;;11.73;77.30;96407.56;2089269;28;20405;-78
2023/11/20 10:03:00;;;;;;;11.38;2.60;;;;;;;11.18;77.92;96401.41;2088050;28;20199;-70
2023/11/20 10:04:03;;;;;;;11.60;2.95;;;;;;;10.85;80.68;96419.81;2090189;28;20207;-70
2023/11/20 10:05:06;;;;;;;10.70;2.38;;;;;;;10.56;81.20;96418.59;2095826;28;20289;-70
2023/11/20 10:06:09;;;;;;;9.20;3.30;;;;;;;10.41;82.31;96413.25;2097533;28;20207;-70
2023/11/20 10:07:12;;;;;;;7.75;2.58;;;;;;;10.27;81.72;96417.34;2088484;28;20247;-69
2023/11/20 10:08:19;;;;;;;10.85;1.95;;;;;;;10.28;81.41;96422.44;2091886;28;20223;-70
2023/11/20 10:09:22;;;;;;;9.27;1.90;;;;;;;10.32;82.34;96414.25;2097723;28;20204;-70
2023/11/20 10:10:25;;;;;;;5.68;1.55;;;;;;;10.37;81.65;96414.59;2096762;28;20207;-71
2023/11/20 10:11:27;;;;;;;11.88;2.00;;;;;;;10.13;81.28;96411.88;2095298;28;20618;-70
2023/11/20 10:12:31;;;;;;;9.07;1.73;;;;;;;9.88;79.96;96415.53;2095668;28;20205;-70
2023/11/20 10:13:36;;;;;;;12.93;2.05;;;;;;;9.84;81.01;96411.66;2096525;28;20244;-69
2023/11/20 10:14:38;;;;;;;9.18;1.80;;;;;;;9.90;81.03;96416.19;2086216;28;20271;-70
2023/11/20 10:15:40;;;;;;;7.75;2.00;;;;;;;9.73;81.04;96413.66;2089570;28;20678;-70
2023/11/20 10:16:43;;;;;;;5.45;1.65;;;;;;;9.68;81.14;96408.13;2098839;28;20203;-70
2023/11/20 10:17:44;;;;;;;8.63;1.80;;;;;;;9.62;81.61;96403.59;2096841;28;20403;-70
2023/11/20 10:18:46;;;;;;;10.85;1.83;;;;;;;9.52;82.46;96419.44;2095271;28;20686;-70
2023/11/20 10:25:14;;;;;;;10.65;1.45;;;;;;;8.92;85.61;96363.56;2085401;28;20564;-73
2023/11/20 10:36:23;;;;;;;12.13;1.58;;;;;;;8.45;90.67;96375.81;2084823;28;21049;-73
2023/11/20 10:37:25;;;;;;;8.68;1.60;;;;;;;8.58;91.37;96375.38;2086184;28;20221;-73
2023/11/20 10:38:28;;;;;;;12.80;1.60;;;;;;;8.69;90.12;96370.56;2080196;28;20220;-73
2023/11/20 10:39:30;;;;;;;7.88;1.58;;;;;;;8.97;90.26;96370.25;2078332;28;20591;-74
2023/11/20 10:40:32;;;;;;;7.45;1.20;;;;;;;8.94;89.32;96367.78;2075673;28;20201;-74
2023/11/20 10:41:39;;;;;;;9.77;1.83;;;;;;;8.93;89.66;96357.44;2077706;28;20208;-74
2023/11/20 10:42:41;;;;;;;6.85;1.40;;;;;;;8.86;89.64;96363.81;2077668;28;20623;-74
2023/11/20 10:43:42;;;;;;;6.55;1.10;;;;;;;8.82;88.86;96345.72;2074804;28;20263;-75
2023/11/20 10:44:44;;;;;;;7.80;1.13;;;;;;;9.05;89.02;96351.69;2076046;28;20288;-75
2023/11/20 10:45:45;;;;;;;4.72;1.10;;;;;;;9.20;87.39;96350.16;2075088;28;20195;-75
2023/11/20 10:46:48;;;;;;;11.75;2.58;;;;;;;10.70;83.41;96345.84;2075446;28;20251;-75
2023/11/20 10:47:50;;;;;;;5.90;1.20;;;;;;;11.80;78.42;96334.09;2076857;28;20195;-75
2023/11/20 10:48:54;;;;;;;8.85;2.05;;;;;;;12.60;73.90;96339.28;2076951;28;20272;-75
2023/11/20 10:49:59;;;;;;;4.18;1.10;;;;;;;13.59;73.46;96336.91;2077506;28;20262;-75
2023/11/20 10:51:06;;;;;;;4.78;1.05;;;;;;;13.62;68.97;96325.41;2074328;28;20846;-68
2023/11/20 10:52:14;;;;;;;4.28;0.90;;;;;;;13.94;67.98;96333.88;2074407;28;20658;-69
2023/11/20 10:53:17;;;;;;;4.93;1.17;;;;;;;12.02;73.19;96332.00;2074172;28;20240;-67
2023/11/20 10:54:33;;;;;;;6.47;2.00;;;;;;;11.17;76.70;96320.81;2075100;28;20250;-68
2023/11/20 10:55:41;;;;;;;14.20;1.48;;;;;;;10.99;78.81;96342.69;2077225;28;20213;-68
2023/11/20 10:56:43;;;;;;;3.17;1.20;;;;;;;10.70;79.92;96340.59;2075594;28;20211;-67
2023/11/20 10:57:48;;;;;;;4.65;1.20;;;;;;;10.54;81.30;96332.72;2076830;28;20337;-68
2023/11/20 10:58:52;;;;;;;7.53;1.73;;;;;;;10.40;81.72;96329.94;2072898;28;20237;-68
2023/11/20 10:59:56;;;;;;;9.48;1.48;;;;;;;10.29;82.47;96331.25;2076412;28;20326;-68
2023/11/20 11:00:58;;;;;;;11.82;1.48;;;;;;;10.12;82.37;96324.25;2072619;28;20585;-68
2023/11/20 11:02:03;;;;;;;11.60;1.70;;;;;;;9.96;83.31;96331.94;2073339;28;20231;-68
2023/11/20 11:03:09;;;;;;;5.57;1.50;;;;;;;9.73;85.18;96321.78;2076694;28;20239;-68
2023/11/20 11:04:19;;;;;;;5.68;1.00;;;;;;;9.57;83.45;96327.69;2078250;28;20205;-68
2023/11/20 11:05:22;;;;;;;6.88;1.35;;;;;;;9.62;84.05;96322.25;2077744;28;20194;-68
2023/11/20 11:06:24;;;;;;;4.43;1.10;;;;;;;9.62;84.30;96330.06;2077378;28;20230;-68
2023/11/20 11:07:27;;;;;;;2.08;0.80;;;;;;;9.62;83.34;96327.47;2074128;28;20207;-68
2023/11/20 11:11:21;;;;;;;9.88;1.00;;;;;;;9.36;83.66;96318.22;2086860;28;20579;-67
2023/11/20 11:12:26;;;;;;;5.72;1.33;;;;;;;9.25;83.69;96309.13;2086130;28;20203;-67
2023/11/20 11:13:32;;;;;;;5.22;1.40;;;;;;;9.44;84.12;96309.13;2074662;28;20228;-67
2023/11/20 11:14:34;;;;;;;8.07;1.05;;;;;;;9.58;83.95;96307.69;2078111;28;20728;-67
2023/11/20 11:15:36;;;;;;;6.22;1.10;;;;;;;9.47;84.01;96300.34;2086048;28;20215;-67
2023/11/20 11:16:43;;;;;;;5.25;0.98;;;;;;;9.38;81.48;96295.56;2085245;28;20208;-67
2023/11/20 11:17:49;;;;;;;10.27;0.98;;;;;;;9.96;79.12;96310.25;2077991;28;20206;-68
2023/11/20 11:19:02;;;;;;;5.32;1.23;;;;;;;9.90;80.00;96298.38;2067023;28;20232;-69
2023/11/20 11:20:11;;;;;;;8.00;1.30;;;;;;;11.22;76.23;96297.06;2078227;28;21123;-69
2023/11/20 11:21:16;;;;;;;4.90;1.33;;;;;;;11.79;73.70;96291.38;2072840;28;20201;-68
2023/11/20 11:22:31;;;;;;;6.28;1.13;;;;;;;11.59;72.74;96295.09;2073118;28;20200;-68
2023/11/20 11:23:49;;;;;;;6.55;1.00;;;;;;;11.91;71.69;96293.34;2068031;28;20235;-69
2023/11/20 11:24:58;;;;;;;4.20;1.30;;;;;;;12.36;70.30;96306.53;2077578;28;20313;-69
2023/11/20 11:26:25;;;;;;;4.13;1.10;;;;;;;11.74;73.30;96304.75;2086172;28;20873;-70
2023/11/20 11:27:35;;;;;;;13.95;1.30;;;;;;;12.88;69.87;96305.28;2082225;28;20675;-70
2023/11/20 11:28:41;;;;;;;3.35;1.08;;;;;;;13.54;67.89;96287.34;2073327;28;20707;-69
2023/11/20 11:29:46;;;;;;;2.65;1.08;;;;;;;13.04;69.43;96297.38;2078376;28;20287;-70
2023/11/20 11:30:49;;;;;;;3.80;1.02;;;;;;;12.65;69.91;96300.56;2078500;28;20216;-69
2023/11/20 11:32:04;;;;;;;6.35;1.00;;;;;;;11.70;70.32;96297.13;2078519;28;20344;-69
2023/11/20 11:33:23;;;;;;;4.97;1.20;;;;;;;10.86;72.87;96291.06;2072558;28;20697;-69
2023/11/20 11:34:50;;;;;;;7.28;0.88;;;;;;;10.41;74.89;96288.09;2078465;28;20648;-68
2023/11/20 11:36:20;;;;;;;4.80;0.80;;;;;;;10.32;77.08;96290.28;2078083;28;20204;-68
2023/11/20 11:37:39;;;;;;;9.18;1.05;;;;;;;10.34;76.81;96281.44;2085554;28;20207;-69
2023/11/20 11:39:16;;;;;;;3.50;0.77;;;;;;;10.91;74.65;96289.06;2076911;28;20258;-69
2023/11/20 11:40:36;;;;;;;6.35;1.00;;;;;;;11.55;73.31;96290.97;2080190;28;20211;-69
2023/11/20 11:41:55;;;;;;;3.60;0.90;;;;;;;12.91;68.94;96283.28;2081202;28;20208;-69
2023/11/20 11:43:11;;;;;;;5.97;1.15;;;;;;;13.50;66.69;96275.38;2078285;28;20660;-70
2023/11/20 11:44:19;;;;;;;6.10;0.77;;;;;;;12.67;68.81;96275.13;2068220;28;20289;-70
2023/11/20 11:45:27;;;;;;;2.78;0.90;;;;;;;12.22;71.47;96267.22;2066964;28;20254;-70
2023/11/20 11:46:28;;;;;;;6.40;1.00;;;;;;;12.36;70.92;96276.91;2068695;28;20653;-70
2023/11/20 11:47:34;;;;;;;4.75;0.82;;;;;;;12.09;71.05;96280.19;2069155;28;20223;-69
2023/11/20 11:48:36;;;;;;;2.60;0.90;;;;;;;11.40;72.06;96271.72;2072638;28;20236;-70
2023/11/20 11:49:44;;;;;;;2.90;0.90;;;;;;;10.92;73.87;96267.25;2071237;28;20206;-69
2023/11/20 11:50:47;;;;;;;4.10;0.73;;;;;;;10.77;75.36;96266.25;2068385;28;20882;-69
2023/11/20 11:51:55;;;;;;;4.38;0.90;;;;;;;10.59;75.27;96262.84;2068812;28;20266;-70
2023/11/20 11:52:57;;;;;;;2.63;0.82;;;;;;;10.49;75.09;96263.34;2068245;28;20196;-70
2023/11/20 11:54:15;;;;;;;2.70;0.80;;;;;;;10.60;76.75;96266.28;2066727;28;20326;-70
2023/11/20 11:55:16;;;;;;;3.75;0.80;;;;;;;10.50;76.47;96265.91;2067160;28;20287;-69
2023/11/20 11:56:18;;;;;;;4.65;1.02;;;;;;;10.24;76.33;96256.72;2069190;28;20652;-70
2023/11/20 11:57:26;;;;;;;2.67;0.70;;;;;;;10.26;77.01;96260.13;2067719;28;20521;-70
2023/11/20 11:58:32;;;;;;;1.85;0.73;;;;;;;10.08;76.03;96256.63;2068032;28;20247;-69
2023/11/20 11:59:39;;;;;;;3.38;0.70;;;;;;;9.92;76.50;96251.34;2062023;28;20212;-69
2023/11/20 12:00:41;;;;;;;6.88;0.80;;;;;;;9.87;76.67;96248.09;2062192;28;20257;-69
2023/11/20 12:01:49;;;;;;;3.78;1.00;;;;;;;9.92;77.60;96249.56;2069466;28;20603;-69
2023/11/20 12:03:09;;;;;;;9.30;0.90;;;;;;;10.04;77.04;96247.28;2069489;28;20197;-69
2023/11/20 12:04:50;;;;;;;3.08;0.85;;;;;;;10.03;77.77;96248.19;2069869;28;20201;-70
2023/11/20 12:05:54;;;;;;;5.10;1.00;;;;;;;9.96;76.46;96250.25;2069519;28;20731;-69
2023/11/20 12:07:04;;;;;;;2.40;1.00;;;;;;;9.90;76.91;96243.59;2069497;28;21101;-70
2023/11/20 12:08:09;;;;;;;7.30;1.30;;;;;;;9.81;77.54;96233.59;2060660;28;20193;-69
2023/11/20 12:09:13;;;;;;;2.85;1.02;;;;;;;9.89;78.51;96234.06;2077457;28;20198;-70
2023/11/20 12:10:14;;;;;;;5.85;1.20;;;;;;;9.83;78.83;96221.31;2076937;28;20200;-69
2023/11/20 12:11:52;;;;;;;3.03;0.70;;;;;;;9.95;78.65;96239.00;2069641;28;20330;-69
2023/11/20 12:13:02;;;;;;;4.75;0.73;;;;;;;9.88;78.18;96229.78;2077317;28;20196;-69
2023/11/20 12:14:06;;;;;;;5.05;0.95;;;;;;;9.80;78.69;96227.53;2075104;28;20212;-69
2023/11/20 12:20:42;;;;;;;2.08;0.80;;;;;;;9.47;80.57;96237.78;2116440;27;20913;-77
2023/11/20 12:25:28;;;;;;;2.28;0.90;;;;;;;9.27;81.96;96231.75;2083434;28;20553;-75
2023/11/20 12:26:30;;;;;;;4.10;0.98;;;;;;;9.35;83.27;96239.22;2082673;28;20301;-76
2023/11/20 12:27:38;;;;;;;2.10;0.80;;;;;;;9.28;84.08;96229.97;2086141;28;20232;-75
2023/11/20 12:28:41;;;;;;;1.17;0.60;;;;;;;9.45;84.36;96243.06;2073606;28;20223;-76
2023/11/20 12:29:43;;;;;;;3.20;0.80;;;;;;;9.50;83.41;96239.41;2073562;28;20202;-78
2023/11/20 12:30:45;;;;;;;3.05;0.77;;;;;;;10.27;81.62;96233.09;2074106;28;20235;-77
2023/11/20 12:31:48;;;;;;;3.05;0.98;;;;;;;10.37;81.82;96234.34;2070270;28;20210;-77
2023/11/20 12:32:50;;;;;;;1.80;0.88;;;;;;;9.87;81.66;96196.78;2071630;28;20204;-77
2023/11/20 12:33:51;;;;;;;4.60;0.90;;;;;;;9.97;81.68;96221.50;2070815;28;20319;-77
2023/11/20 12:34:53;;;;;;;2.03;0.70;;;;;;;10.18;81.17;96231.78;2071816;28;20208;-78
2023/11/20 12:35:55;;;;;;;2.22;0.85;;;;;;;10.25;80.23;96227.94;2074796;28;20395;-78
2023/11/20 12:36:57;;;;;;;2.85;0.80;;;;;;;10.04;82.26;96227.25;2072302;28;20196;-77
2023/11/20 12:38:04;;;;;;;6.53;0.95;;;;;;;9.93;82.10;96214.75;2069596;28;20434;-77
2023/11/20 12:39:06;;;;;;;2.13;0.80;;;;;;;9.84;82.01;96199.56;2066092;28;20233;-78
2023/11/20 12:40:11;;;;;;;11.05;1.10;;;;;;;10.15;80.24;96229.34;2075795;28;20204;-78
2023/11/20 12:41:15;;;;;;;2.67;0.60;;;;;;;9.92;80.71;96228.69;2073987;28;20290;-78
2023/11/20 12:42:19;;;;;;;3.13;0.90;;;;;;;9.88;81.04;96214.13;2074744;28;20258;-77
2023/11/20 12:43:22;;;;;;;3.10;0.90;;;;;;;9.90;79.27;96214.03;2072591;28;20232;-77
2023/11/20 12:44:25;;;;;;;3.85;1.10;;;;;;;9.82;80.51;96217.03;2074380;28;20203;-77
2023/11/20 12:45:27;;;;;;;3.50;0.90;;;;;;;9.69;79.47;96221.13;2072106;28;20234;-78
2023/11/20 12:46:28;;;;;;;9.30;0.80;;;;;;;9.68;81.23;96232.50;2072457;28;20691;-77
2023/11/20 12:47:30;;;;;;;1.85;0.70;;;;;;;9.55;81.17;96221.78;2074993;28;20199;-77
2023/11/20 12:48:36;;;;;;;11.13;1.05;;;;;;;9.41;81.28;96210.25;2068517;28;20226;-77
2023/11/20 12:49:39;;;;;;;2.20;0.70;;;;;;;9.44;82.02;96227.50;2070539;28;20656;-70
2023/11/20 12:50:45;;;;;;;4.20;0.80;;;;;;;9.44;82.62;96228.34;2071520;28;20236;-70
2023/11/20 12:55:40;;;;;;;6.93;1.10;;;;;;;9.14;85.99;96226.25;2107122;27;20572;-69
2023/11/20 12:56:44;;;;;;;4.70;0.80;;;;;;;9.11;85.33;96218.56;2106146;28;20677;-69
2023/11/20 12:57:45;;;;;;;2.10;0.70;;;;;;;9.12;85.57;96227.25;2106987;28;20312;-69
2023/11/20 12:58:52;;;;;;;3.92;0.90;;;;;;;9.15;86.94;96220.13;2091422;28;20725;-70
2023/11/20 12:59:54;;;;;;;5.78;1.02;;;;;;;9.19;87.89;96225.19;2089431;28;20197;-70
2023/11/20 13:00:56;;;;;;;4.60;1.00;;;;;;;8.98;87.98;96215.69;2086778;28;20264;-70
2023/11/20 13:01:58;;;;;;;5.63;1.00;;;;;;;8.96;88.11;96216.66;2088973;28;20259;-70
2023/11/20 13:03:05;;;;;;;7.07;1.08;;;;;;;8.91;87.55;96214.28;2089789;28;20199;-70
2023/11/20 13:04:07;;;;;;;4.88;1.20;;;;;;;8.95;88.09;96205.41;2099307;28;20704;-70
2023/11/20 13:05:12;;;;;;;9.60;0.90;;;;;;;9.11;86.89;96210.75;2094186;28;20278;-69
2023/11/20 13:06:14;;;;;;;5.75;1.23;;;;;;;9.74;85.74;96214.78;2094487;28;20585;-70
2023/11/20 13:07:20;;;;;;;2.95;0.85;;;;;;;10.67;81.11;96204.16;2092135;28;20257;-70
2023/11/20 13:08:23;;;;;;;5.00;1.20;;;;;;;11.19;78.87;96209.22;2088326;28;20256;-71
2023/11/20 13:09:25;;;;;;;5.78;1.02;;;;;;;11.38;78.81;96188.16;2082942;28;20219;-70
2023/11/20 13:10:29;;;;;;;8.25;1.08;;;;;;;10.94;80.06;96207.94;2088746;28;20205;-70
2023/11/20 13:11:33;;;;;;;4.22;0.90;;;;;;;10.79;80.91;96200.88;2089038;28;20200;-70
2023/11/20 13:12:38;;;;;;;2.28;0.90;;;;;;;10.64;80.36;96199.06;2081279;28;20208;-70
2023/11/20 13:13:42;;;;;;;2.38;0.90;;;;;;;10.30;80.38;96201.63;2088528;28;20798;-71
2023/11/20 13:15:00;;;;;;;4.10;1.40;;;;;;;10.50;80.35;96190.22;2089876;28;20205;-70
2023/11/20 13:16:15;;;;;;;7.10;0.98;;;;;;;11.50;76.58;96191.84;2086555;28;20466;-70
2023/11/20 13:17:16;;;;;;;4.65;1.10;;;;;;;12.21;76.18;96187.88;2088092;28;20749;-70
2023/11/20 13:18:19;;;;;;;9.45;1.20;;;;;;;11.56;76.61;96180.22;2086091;28;20201;-71
2023/11/20 13:19:41;;;;;;;2.50;1.00;;;;;;;11.09;78.24;96179.28;2090321;28;20844;-70
2023/11/20 13:20:44;;;;;;;3.72;0.90;;;;;;;10.86;79.00;96178.75;2090349;28;20670;-70
2023/11/20 13:21:45;;;;;;;5.03;0.90;;;;;;;10.68;80.14;96184.94;2089810;28;20201;-70
2023/11/20 13:22:47;;;;;;;2.72;0.73;;;;;;;10.33;80.38;96177.13;2088561;28;20510;-70
2023/11/20 13:24:09;;;;;;;3.70;1.02;;;;;;;10.03;81.83;96173.41;2083709;28;20225;-70
2023/11/20 13:25:11;;;;;;;3.70;0.88;;;;;;;9.94;82.17;96179.91;2089826;28;20200;-70
2023/11/20 13:26:12;;;;;;;4.75;0.80;;;;;;;9.78;83.34;96171.16;2089910;28;20200;-70
2023/11/20 13:27:14;;;;;;;2.67;0.90;;;;;;;9.85;83.42;96166.47;2089643;28;20253;-70
2023/11/20 13:28:18;;;;;;;3.15;0.90;;;;;;;9.83;83.35;96169.16;2089338;28;20203;-70
2023/11/20 13:29:19;;;;;;;3.85;0.98;;;;;;;9.85;83.28;96166.47;2092921;28;20201;-70
2023/11/20 13:30:21;;;;;;;2.75;0.80;;;;;;;9.97;83.80;96165.88;2085942;28;20591;-70
2023/11/20 13:31:34;;;;;;;4.20;1.13;;;;;;;10.19;82.43;96173.47;2088246;28;20201;-70
2023/11/20 13:32:36;;;;;;;4.80;0.98;;;;;;;10.13;82.98;96168.53;2086748;28;20200;-68
2023/11/20 13:33:42;;;;;;;3.22;0.93;;;;;;;9.99;82.75;96168.41;2086328;28;20235;-70
2023/11/20 13:34:45;;;;;;;9.35;1.58;;;;;;;9.91;82.69;96182.66;2091244;28;20814;-70
2023/11/20 14:05:00;;;;;;;4.72;1.05;;;;;;;8.09;100.00;96181.34;2099586;27;20562;-67
2023/11/20 14:06:03;;;;;;;12.88;1.42;;;;;;;8.25;100.00;96184.16;2103621;28;20310;-67
2023/11/20 14:07:04;;;;;;;7.70;1.10;;;;;;;8.61;99.16;96187.84;2094416;28;20251;-69
2023/11/20 14:08:06;;;;;;;10.68;1.52;;;;;;;8.47;98.47;96167.66;2099216;28;20204;-69
2023/11/20 14:09:07;;;;;;;4.15;0.90;;;;;;;8.64;99.41;96180.72;2082115;28;20229;-69
2023/11/20 14:10:09;;;;;;;4.32;0.80;;;;;;;8.68;98.79;96178.84;2089803;28;20200;-69
2023/11/20 14:11:11;;;;;;;3.97;0.93;;;;;;;8.69;98.30;96177.94;2090893;28;20196;-69
2023/11/20 14:12:12;;;;;;;7.88;1.00;;;;;;;9.19;96.86;96184.34;2090471;28;20219;-69
2023/11/20 14:13:15;;;;;;;4.68;0.80;;;;;;;9.05;93.26;96176.34;2092279;28;20195;-69
2023/11/20 14:14:17;;;;;;;5.50;1.00;;;;;;;8.90;93.38;96168.31;2107233;28;20207;-69
2023/11/20 14:15:19;;;;;;;1.90;0.85;;;;;;;8.95;94.45;96174.16;2107403;28;20187;-69
2023/11/20 14:16:21;;;;;;;5.25;0.70;;;;;;;9.02;93.77;96171.28;2113043;28;20701;-69
2023/11/20 14:17:23;;;;;;;3.65;0.90;;;;;;;9.19;94.15;96175.69;2106692;28;20289;-69
2023/11/20 14:18:28;;;;;;;8.13;1.00;;;;;;;9.44;92.93;96171.00;2107613;28;20214;-68
2023/11/20 14:19:30;;;;;;;6.00;1.05;;;;;;;10.18;89.75;96173.53;2106498;28;20638;-68
2023/11/20 14:20:33;;;;;;;4.22;1.10;;;;;;;10.66;88.01;96171.13;2103399;28;20282;-68
2023/11/20 14:21:35;;;;;;;9.10;1.23;;;;;;;11.44;85.56;96166.06;2104397;28;20196;-67
2023/11/20 14:22:38;;;;;;;3.88;1.08;;;;;;;11.98;84.10;96170.88;2107242;28;20642;-68
2023/11/20 14:23:42;;;;;;;2.60;1.15;;;;;;;12.05;83.96;96159.13;2107417;28;20249;-67
2023/11/20 14:24:43;;;;;;;6.15;1.13;;;;;;;12.17;82.29;96164.56;2109370;28;20217;-68
2023/11/20 14:25:45;;;;;;;3.45;1.17;;;;;;;11.63;82.02;96154.56;2109892;28;20233;-67
2023/11/20 14:27:06;;;;;;;2.55;1.13;;;;;;;11.70;82.48;96119.28;2108971;28;20203;-68
2023/11/20 14:28:08;;;;;;;4.78;1.00;;;;;;;12.17;80.06;96144.47;2104503;28;20227;-69
2023/11/20 14:29:11;;;;;;;1.90;0.85;;;;;;;11.86;80.57;96138.38;2107183;28;20248;-68
2023/11/20 14:30:13;;;;;;;3.50;0.98;;;;;;;10.64;82.88;96134.66;2107545;28;20214;-68
2023/11/20 14:31:14;;;;;;;2.60;0.90;;;;;;;10.55;83.76;96135.13;2106107;28;20202;-68
2023/11/20 14:32:16;;;;;;;2.22;0.90;;;;;;;10.62;84.02;96146.94;2106776;28;20857;-68
2023/11/20 14:33:17;;;;;;;6.07;0.95;;;;;;;10.76;83.70;96146.22;2112976;28;20680;-68
2023/11/20 14:34:19;;;;;;;3.67;0.98;;;;;;;10.56;83.54;96134.22;2106381;28;20592;-68
2023/11/20 14:35:21;;;;;;;6.63;1.02;;;;;;;10.39;84.34;96143.75;2107968;28;20531;-68
2023/11/20 14:36:22;;;;;;;3.55;0.85;;;;;;;10.15;85.18;96145.84;2110885;28;20203;-68
2023/11/20 14:37:23;;;;;;;2.53;0.73;;;;;;;10.17;86.31;96136.19;2110675;28;20195;-68
2023/11/20 14:38:25;;;;;;;3.95;0.90;;;;;;;10.44;85.83;96146.16;2104947;28;20661;-68
2023/11/20 14:39:26;;;;;;;5.20;1.20;;;;;;;10.45;84.18;96137.41;2107388;28;20247;-68
2023/11/20 14:40:28;;;;;;;6.57;1.10;;;;;;;10.42;83.96;96147.97;2106782;28;20249;-69
2023/11/20 14:41:30;;;;;;;3.10;1.02;;;;;;;10.26;83.18;96132.25;2107738;28;20195;-68
2023/11/20 14:42:31;;;;;;;5.00;1.13;;;;;;;10.10;85.39;96134.78;2103593;28;20282;-68
2023/11/20 14:43:35;;;;;;;6.07;1.45;;;;;;;10.18;86.04;96144.84;2102641;28;20704;-69
2023/11/20 14:44:38;;;;;;;4.78;0.90;;;;;;;10.19;84.17;96146.53;2109398;28;20660;-68
2023/11/20 14:45:39;;;;;;;10.73;0.93;;;;;;;10.10;85.32;96137.41;2110053;28;20250;-68
2023/11/20 14:46:41;;;;;;;4.47;1.10;;;;;;;9.99;85.93;96144.94;2108120;28;20191;-69
2023/11/20 14:47:44;;;;;;;2.22;0.80;;;;;;;9.99;85.96;96139.72;2102950;28;20562;-69
2023/11/20 14:48:46;;;;;;;5.35;0.70;;;;;;;10.08;85.67;96136.63;2103650;28;20684;-68
2023/11/20 14:49:48;;;;;;;4.18;1.10;;;;;;;10.33;85.31;96132.78;2108389;28;20202;-68
2023/11/20 14:50:51;;;;;;;4.32;0.80;;;;;;;10.07;85.42;96129.75;2109481;28;20282;-68
2023/11/20 14:51:52;;;;;;;2.75;0.80;;;;;;;9.92;83.49;96131.38;2108405;28;20228;-68
2023/11/20 14:52:54;;;;;;;4.72;1.10;;;;;;;9.60;86.18;96120.78;2113260;28;20643;-70
2023/11/20 14:53:57;;;;;;;4.18;1.20;;;;;;;10.11;85.24;96128.66;2114117;28;20654;-68
2023/11/20 14:55:00;;;;;;;6.93;1.05;;;;;;;10.36;83.51;96135.25;2113782;28;20242;-70
2023/11/20 14:56:02;;;;;;;3.78;0.90;;;;;;;10.39;82.95;61515.06;2113818;28;20684;-71
2023/11/20 14:57:04;;;;;;;4.28;1.13;;;;;;;10.57;83.19;96135.91;2106391;28;20187;-70
2023/11/20 14:58:05;;;;;;;4.32;1.17;;;;;;;10.39;84.13;96135.09;2104740;28;20670;-70
2023/11/20 14:59:07;;;;;;;5.93;0.90;;;;;;;10.21;84.08;96131.63;2097967;28;20227;-70
2023/11/20 15:00:14;;;;;;;5.30;1.00;;;;;;;9.76;84.90;96128.66;2103585;28;20207;-70
2023/11/20 15:01:17;;;;;;;1.85;0.70;;;;;;;9.31;87.46;96118.66;2107533;28;20187;-70
2023/11/20 15:02:19;;;;;;;3.70;1.00;;;;;;;9.44;87.70;96133.69;2105881;28;20485;-71
2023/11/20 15:03:22;;;;;;;8.40;1.27;;;;;;;8.86;90.37;96132.91;2109082;28;20199;-71
2023/11/20 15:04:24;;;;;;;2.58;0.90;;;;;;;8.75;91.75;96114.34;2108218;28;20227;-71
2023/11/20 15:05:32;;;;;;;3.03;1.10;;;;;;;8.81;91.69;96134.88;2107477;28;20211;-71
2023/11/20 15:06:34;;;;;;;9.13;1.25;;;;;;;8.84;91.90;96124.34;2107890;28;20195;-71
2023/11/20 15:07:36;;;;;;;2.28;0.95;;;;;;;8.53;93.16;96132.69;2104167;28;20284;-70
2023/11/20 15:08:38;;;;;;;13.52;1.20;;;;;;;8.38;94.25;96123.75;2104848;28;20224;-70
2023/11/20 15:09:39;;;;;;;5.15;1.10;;;;;;;8.21;94.91;96109.75;2105953;28;20673;-70
2023/11/20 15:10:42;;;;;;;2.75;0.95;;;;;;;8.01;96.10;96128.81;2104052;28;20476;-70
2023/11/20 15:11:44;;;;;;;2.30;0.77;;;;;;;8.11;94.41;96130.13;2103058;28;20196;-70
2023/11/20 15:12:46;;;;;;;1.83;0.70;;;;;;;8.09;93.70;96131.09;2103439;28;20204;-70
